Lorberry, Pennsylvania
Current Conditions -  °F | °C
As of 11:34 AM on Wednesday 22 Oct 2014 (Local Time) from KMUI Reporting Station
Light Rain Light Rain  
Wind Chill: 54°   Ceiling: 2700
Heat Index: 54°   Visibility: 10mi
Dew Point: 54°   Wind: 14mph
Humidity: 100%   Direction: 10°N
Pressure: 29.98"   Gusts: 18mph
Location:  40.5592°N, 76.3347°W
Report Text: KMUI 221534Z AUTO 01012G16KT 10SM -RA SCT019 OVC027 12/12 A2998 RMK AO2 CIG 019V027 $
Loading
Personal Weather Stations






























Interactive Weather Map
Tropical Storm Tracking
New forecast layout! Learn more

10-Day Weather Forecast

Advertisements
Track Severe Weather on mobile